createdAt,value
2017-04-02T00:00:47.398Z,1012.33
2017-04-02T00:01:48.129Z,1012.35
2017-04-02T00:02:48.818Z,1012.35
2017-04-02T00:03:49.538Z,1012.36
2017-04-02T00:04:50.219Z,1012.34
2017-04-02T00:05:50.895Z,1012.33
2017-04-02T00:06:51.615Z,1012.42
2017-04-02T00:07:52.319Z,1012.4
2017-04-02T00:08:52.993Z,1012.39
2017-04-02T00:09:53.689Z,1012.38
2017-04-02T00:10:54.481Z,1012.39
2017-04-02T00:11:55.166Z,1012.39
2017-04-02T00:12:55.874Z,1012.43
2017-04-02T00:13:56.537Z,1012.43
2017-04-02T00:14:57.229Z,1012.39
2017-04-02T00:15:57.911Z,1012.43
2017-04-02T00:16:58.603Z,1012.46
2017-04-02T00:17:59.290Z,1012.47
2017-04-02T00:18:59.987Z,1012.44
2017-04-02T00:20:00.660Z,1012.52
2017-04-02T00:21:01.349Z,1012.55
2017-04-02T00:22:02.046Z,1012.56
2017-04-02T00:23:02.711Z,1012.55
2017-04-02T00:24:03.382Z,1012.57
2017-04-02T00:25:04.074Z,1012.59
2017-04-02T00:26:04.784Z,1012.6
2017-04-02T00:27:05.498Z,1012.62
2017-04-02T00:28:06.212Z,1012.64
2017-04-02T00:29:06.905Z,1012.69
2017-04-02T00:30:07.620Z,1012.67
2017-04-02T00:31:08.307Z,1012.68
2017-04-02T00:32:09.002Z,1012.62
2017-04-02T00:33:09.700Z,1012.64
2017-04-02T00:34:10.400Z,1012.61
2017-04-02T00:35:11.098Z,1012.62
2017-04-02T00:36:11.787Z,1012.61
2017-04-02T00:37:12.484Z,1012.57
2017-04-02T00:38:13.185Z,1012.58
2017-04-02T00:39:13.881Z,1012.61
2017-04-02T00:40:14.616Z,1012.64
2017-04-02T00:41:15.286Z,1012.69
2017-04-02T00:42:15.967Z,1012.75
2017-04-02T00:43:16.659Z,1012.78
2017-04-02T00:44:17.355Z,1012.82
2017-04-02T00:45:18.036Z,1012.83
2017-04-02T00:46:18.712Z,1012.77
2017-04-02T00:47:19.404Z,1012.8
2017-04-02T00:48:20.095Z,1012.81
2017-04-02T00:49:20.769Z,1012.8
2017-04-02T00:50:21.440Z,1012.8
2017-04-02T00:51:22.122Z,1012.85
2017-04-02T00:52:22.796Z,1012.83
2017-04-02T00:53:23.486Z,1012.76
2017-04-02T00:54:24.178Z,1012.77
2017-04-02T00:55:24.865Z,1012.71
2017-04-02T00:56:25.567Z,1012.76
2017-04-02T00:57:26.254Z,1012.76
2017-04-02T00:58:26.953Z,1012.76
2017-04-02T00:59:27.648Z,1012.73
2017-04-02T01:00:28.354Z,1012.74
2017-04-02T01:01:29.033Z,1012.72
2017-04-02T01:02:29.715Z,1012.75
2017-04-02T01:03:30.405Z,1012.71
2017-04-02T01:04:31.090Z,1012.68
2017-04-02T01:05:31.791Z,1012.72
2017-04-02T01:06:32.500Z,1012.71
2017-04-02T01:07:33.209Z,1012.69
2017-04-02T01:08:33.932Z,1012.73
2017-04-02T01:09:34.662Z,1012.71
2017-04-02T01:10:35.352Z,1012.68
2017-04-02T01:11:36.029Z,1012.7
2017-04-02T01:12:36.775Z,1012.7
2017-04-02T01:13:37.450Z,1012.73
2017-04-02T01:14:38.137Z,1012.74
2017-04-02T01:15:38.826Z,1012.71
2017-04-02T01:16:39.499Z,1012.71
2017-04-02T01:17:40.213Z,1012.7
2017-04-02T01:18:40.907Z,1012.71
2017-04-02T01:19:41.592Z,1012.73
2017-04-02T01:20:42.278Z,1012.68
2017-04-02T01:21:42.971Z,1012.7
2017-04-02T01:22:43.677Z,1012.73
2017-04-02T01:23:44.374Z,1012.72
2017-04-02T01:24:45.061Z,1012.73
2017-04-02T01:25:45.767Z,1012.73
2017-04-02T01:26:46.448Z,1012.75
2017-04-02T01:27:47.130Z,1012.79
2017-04-02T01:28:47.837Z,1012.78
2017-04-02T01:29:48.512Z,1012.76
2017-04-02T01:30:49.186Z,1012.77
2017-04-02T01:31:49.863Z,1012.76
2017-04-02T01:32:50.554Z,1012.79
2017-04-02T01:33:51.246Z,1012.75
2017-04-02T01:34:51.935Z,1012.77
2017-04-02T01:35:52.620Z,1012.78
2017-04-02T01:36:53.363Z,1012.83
2017-04-02T01:37:54.079Z,1012.78
2017-04-02T01:38:54.751Z,1012.81
2017-04-02T01:39:55.465Z,1012.84
2017-04-02T01:40:56.158Z,1012.84
2017-04-02T01:41:56.840Z,1012.84
2017-04-02T01:42:57.560Z,1012.82
2017-04-02T01:43:58.240Z,1012.84
2017-04-02T01:44:58.970Z,1012.8
2017-04-02T01:45:59.668Z,1012.85
2017-04-02T01:47:00.344Z,1012.84
2017-04-02T01:48:01.061Z,1012.86
2017-04-02T01:49:01.764Z,1012.87
2017-04-02T01:50:02.434Z,1012.9
2017-04-02T01:51:03.137Z,1012.93
2017-04-02T01:52:03.864Z,1012.95
2017-04-02T01:53:04.546Z,1012.94
2017-04-02T01:54:05.283Z,1012.95
2017-04-02T01:55:05.988Z,1012.96
2017-04-02T01:56:06.657Z,1012.95
2017-04-02T01:57:07.379Z,1013.03
2017-04-02T01:58:08.068Z,1013.1
2017-04-02T01:59:08.762Z,1013.08
2017-04-02T02:00:09.458Z,1013.15
2017-04-02T02:01:10.136Z,1013.11
2017-04-02T02:02:10.888Z,1013.16
2017-04-02T02:03:11.605Z,1013.18
2017-04-02T02:04:12.292Z,1013.22
2017-04-02T02:05:12.963Z,1013.22
2017-04-02T02:06:13.645Z,1013.25
2017-04-02T02:07:14.325Z,1013.27
2017-04-02T02:08:15.017Z,1013.3
2017-04-02T02:09:15.702Z,1013.38
2017-04-02T02:10:16.393Z,1013.38
2017-04-02T02:11:17.082Z,1013.42
2017-04-02T02:12:17.812Z,1013.45
2017-04-02T02:13:18.497Z,1013.45
2017-04-02T02:14:19.293Z,1013.5
2017-04-02T02:15:19.988Z,1013.48
2017-04-02T02:16:20.662Z,1013.52
2017-04-02T02:17:21.345Z,1013.49
2017-04-02T02:18:22.043Z,1013.52
2017-04-02T02:19:22.767Z,1013.49
2017-04-02T02:20:23.455Z,1013.54
2017-04-02T02:21:24.137Z,1013.55
2017-04-02T02:22:24.812Z,1013.55
2017-04-02T02:23:25.489Z,1013.56
2017-04-02T02:24:26.182Z,1013.55
2017-04-02T02:25:26.868Z,1013.56
2017-04-02T02:26:27.543Z,1013.54
2017-04-02T02:27:28.227Z,1013.53
2017-04-02T02:28:28.919Z,1013.52
2017-04-02T02:29:29.611Z,1013.55
2017-04-02T02:30:30.296Z,1013.58
2017-04-02T02:31:30.989Z,1013.57
2017-04-02T02:32:31.666Z,1013.5
2017-04-02T02:33:32.371Z,1013.55
2017-04-02T02:34:33.076Z,1013.54
2017-04-02T02:35:33.749Z,1013.53
2017-04-02T02:36:34.426Z,1013.5
2017-04-02T02:37:35.106Z,1013.5
2017-04-02T02:38:35.810Z,1013.48
2017-04-02T02:39:36.495Z,1013.48
2017-04-02T02:40:37.175Z,1013.47
2017-04-02T02:41:37.871Z,1013.51
2017-04-02T02:42:38.564Z,1013.57
2017-04-02T02:43:39.262Z,1013.56
2017-04-02T02:44:39.947Z,1013.59
2017-04-02T02:45:40.629Z,1013.58
2017-04-02T02:46:41.335Z,1013.61
2017-04-02T02:47:42.032Z,1013.65
2017-04-02T02:48:42.722Z,1013.7
2017-04-02T02:49:43.418Z,1013.67
2017-04-02T02:50:44.110Z,1013.67
2017-04-02T02:51:44.793Z,1013.64
2017-04-02T02:52:45.477Z,1013.68
2017-04-02T02:53:46.181Z,1013.71
2017-04-02T02:54:46.854Z,1013.69
2017-04-02T02:55:47.524Z,1013.71
2017-04-02T02:56:48.234Z,1013.72
2017-04-02T02:57:48.933Z,1013.74
2017-04-02T02:58:49.636Z,1013.76
2017-04-02T02:59:50.325Z,1013.76
2017-04-02T03:00:51.007Z,1013.77
2017-04-02T03:01:51.700Z,1013.74
2017-04-02T03:02:52.367Z,1013.79
2017-04-02T03:03:53.057Z,1013.77
2017-04-02T03:04:53.741Z,1013.78
2017-04-02T03:05:54.434Z,1013.82
2017-04-02T03:06:55.112Z,1013.81
2017-04-02T03:07:55.800Z,1013.78
2017-04-02T03:08:56.485Z,1013.82
2017-04-02T03:09:57.185Z,1013.78
2017-04-02T03:10:57.871Z,1013.81
2017-04-02T03:11:58.558Z,1013.79
2017-04-02T03:12:59.259Z,1013.75
2017-04-02T03:13:59.946Z,1013.78
2017-04-02T03:15:00.648Z,1013.84
2017-04-02T03:16:01.374Z,1013.78
2017-04-02T03:17:02.060Z,1013.79
2017-04-02T03:18:02.733Z,1013.78
2017-04-02T03:19:03.437Z,1013.79
2017-04-02T03:20:04.143Z,1013.82
2017-04-02T03:21:04.830Z,1013.81
2017-04-02T03:22:05.525Z,1013.89
2017-04-02T03:23:06.229Z,1013.84
2017-04-02T03:24:06.914Z,1013.92
2017-04-02T03:25:07.610Z,1013.9
2017-04-02T03:26:08.297Z,1013.92
2017-04-02T03:27:08.987Z,1013.97
2017-04-02T03:28:09.665Z,1014.01
2017-04-02T03:29:10.345Z,1013.99
2017-04-02T03:30:11.037Z,1014
2017-04-02T03:31:11.726Z,1014.05
2017-04-02T03:32:12.402Z,1014.06
2017-04-02T03:33:13.094Z,1014.07
2017-04-02T03:34:13.791Z,1014.09
2017-04-02T03:35:14.493Z,1014.13
2017-04-02T03:36:15.180Z,1014.09
2017-04-02T03:37:15.876Z,1014.11
2017-04-02T03:38:16.562Z,1014.09
2017-04-02T03:39:17.233Z,1014.05
2017-04-02T03:40:17.927Z,1014.07
2017-04-02T03:41:18.609Z,1014
2017-04-02T03:42:19.286Z,1014.01
2017-04-02T03:43:19.953Z,1014.01
2017-04-02T03:44:20.640Z,1014.02
2017-04-02T03:45:21.317Z,1014.09
2017-04-02T03:46:22.013Z,1014.12
2017-04-02T03:47:22.697Z,1014.08
2017-04-02T03:48:23.404Z,1014.09
2017-04-02T03:49:24.109Z,1014.11
2017-04-02T03:50:24.807Z,1014.1
2017-04-02T03:51:25.491Z,1014.07
2017-04-02T03:52:26.178Z,1014.09
2017-04-02T03:53:26.860Z,1014.1
2017-04-02T03:54:27.550Z,1014.12
2017-04-02T03:55:28.225Z,1014.13
2017-04-02T03:56:28.909Z,1014.19
2017-04-02T03:57:29.584Z,1014.16
2017-04-02T03:58:30.273Z,1014.24
2017-04-02T03:59:30.965Z,1014.23
2017-04-02T04:00:31.652Z,1014.24
2017-04-02T04:01:32.345Z,1014.3
2017-04-02T04:02:33.024Z,1014.3
2017-04-02T04:03:33.716Z,1014.26
2017-04-02T04:04:34.433Z,1014.3
2017-04-02T04:05:35.111Z,1014.36
2017-04-02T04:06:35.794Z,1014.36
2017-04-02T04:07:36.479Z,1014.36
2017-04-02T04:08:37.170Z,1014.35
2017-04-02T04:09:37.857Z,1014.46
2017-04-02T04:10:38.557Z,1014.46
2017-04-02T04:11:39.255Z,1014.5
2017-04-02T04:12:39.954Z,1014.52
2017-04-02T04:13:40.646Z,1014.51
2017-04-02T04:14:41.340Z,1014.48
2017-04-02T04:15:42.026Z,1014.55
2017-04-02T04:16:42.733Z,1014.56
2017-04-02T04:17:43.411Z,1014.59
2017-04-02T04:18:44.086Z,1014.64
2017-04-02T04:19:44.780Z,1014.62
2017-04-02T04:20:45.468Z,1014.67
2017-04-02T04:21:46.154Z,1014.68
2017-04-02T04:22:46.848Z,1014.64
2017-04-02T04:23:47.537Z,1014.69
2017-04-02T04:24:48.221Z,1014.7
2017-04-02T04:25:48.905Z,1014.7
2017-04-02T04:26:49.578Z,1014.72
2017-04-02T04:27:50.263Z,1014.7
2017-04-02T04:28:50.959Z,1014.73
2017-04-02T04:29:51.652Z,1014.76
2017-04-02T04:30:52.344Z,1014.72
2017-04-02T04:31:53.023Z,1014.74
2017-04-02T04:32:53.699Z,1014.72
2017-04-02T04:33:54.378Z,1014.77
2017-04-02T04:34:55.082Z,1014.75
2017-04-02T04:35:55.766Z,1014.76
2017-04-02T04:36:56.446Z,1014.76
2017-04-02T04:37:57.107Z,1014.75
2017-04-02T04:38:57.783Z,1014.77
2017-04-02T04:39:58.465Z,1014.81
2017-04-02T04:40:59.172Z,1014.8
2017-04-02T04:41:59.864Z,1014.83
2017-04-02T04:43:00.551Z,1014.78
2017-04-02T04:44:01.272Z,1014.87
2017-04-02T04:45:01.955Z,1014.84
2017-04-02T04:46:02.652Z,1014.86
2017-04-02T04:47:03.327Z,1014.86
2017-04-02T04:48:04.025Z,1014.86
2017-04-02T04:49:04.704Z,1014.95
2017-04-02T04:50:05.374Z,1014.96
2017-04-02T04:51:06.068Z,1014.98
2017-04-02T04:52:06.748Z,1015.04
2017-04-02T04:53:07.447Z,1015.03
2017-04-02T04:54:08.128Z,1015.05
2017-04-02T04:55:08.810Z,1015.08
2017-04-02T04:56:09.493Z,1015.12
2017-04-02T04:57:10.188Z,1015.13
2017-04-02T04:58:10.868Z,1015.2
2017-04-02T04:59:11.553Z,1015.19
2017-04-02T05:00:12.231Z,1015.15
2017-04-02T05:01:12.924Z,1015.16
2017-04-02T05:02:13.610Z,1015.14
2017-04-02T05:03:14.315Z,1015.15
2017-04-02T05:04:15.009Z,1015.2
2017-04-02T05:05:15.715Z,1015.21
2017-04-02T05:06:16.397Z,1015.21
2017-04-02T05:07:17.124Z,1015.21
2017-04-02T05:08:17.831Z,1015.21
2017-04-02T05:09:18.508Z,1015.27
2017-04-02T05:10:19.190Z,1015.26
2017-04-02T05:11:19.912Z,1015.25
2017-04-02T05:12:20.608Z,1015.28
2017-04-02T05:13:21.311Z,1015.3
2017-04-02T05:14:21.994Z,1015.32
2017-04-02T05:15:22.669Z,1015.36
2017-04-02T05:16:23.343Z,1015.32
2017-04-02T05:17:24.034Z,1015.3
2017-04-02T05:18:24.712Z,1015.37
2017-04-02T05:19:25.433Z,1015.38
2017-04-02T05:20:26.117Z,1015.35
2017-04-02T05:21:26.824Z,1015.37
2017-04-02T05:22:27.554Z,1015.41
2017-04-02T05:23:28.240Z,1015.4
2017-04-02T05:24:28.920Z,1015.41
2017-04-02T05:25:29.611Z,1015.47
2017-04-02T05:26:30.334Z,1015.49
2017-04-02T05:27:31.044Z,1015.55
2017-04-02T05:28:31.755Z,1015.56
2017-04-02T05:29:32.433Z,1015.56
2017-04-02T05:30:33.140Z,1015.57
2017-04-02T05:31:33.851Z,1015.59
2017-04-02T05:32:34.552Z,1015.58
2017-04-02T05:33:35.227Z,1015.6
2017-04-02T05:34:35.920Z,1015.62
2017-04-02T05:35:36.637Z,1015.63
2017-04-02T05:36:37.328Z,1015.64
2017-04-02T05:37:38.028Z,1015.7
2017-04-02T05:38:38.719Z,1015.69
2017-04-02T05:39:39.389Z,1015.7
2017-04-02T05:40:40.087Z,1015.71
2017-04-02T05:41:40.777Z,1015.71
2017-04-02T05:42:41.455Z,1015.75
2017-04-02T05:43:42.133Z,1015.79
2017-04-02T05:44:42.822Z,1015.76
2017-04-02T05:45:43.525Z,1015.79
2017-04-02T05:46:44.212Z,1015.79
2017-04-02T05:47:44.912Z,1015.79
2017-04-02T05:48:45.604Z,1015.82
2017-04-02T05:49:46.297Z,1015.77
2017-04-02T05:50:46.989Z,1015.82
2017-04-02T05:51:47.669Z,1015.79
2017-04-02T05:52:48.370Z,1015.81
2017-04-02T05:53:49.075Z,1015.87
2017-04-02T05:54:49.773Z,1015.9
2017-04-02T05:55:50.453Z,1015.87
2017-04-02T05:56:51.152Z,1015.87
2017-04-02T05:57:51.854Z,1015.89
2017-04-02T05:58:52.556Z,1015.93
2017-04-02T05:59:53.243Z,1015.91
2017-04-02T06:00:53.922Z,1015.95
2017-04-02T06:01:54.610Z,1015.98
2017-04-02T06:02:55.293Z,1015.99
2017-04-02T06:03:56.012Z,1016.05
2017-04-02T06:04:56.708Z,1016.05
2017-04-02T06:05:57.407Z,1016.02
2017-04-02T06:06:58.107Z,1016.04
2017-04-02T06:07:58.811Z,1016.09
2017-04-02T06:08:59.503Z,1016.1
2017-04-02T06:10:00.215Z,1016.09
2017-04-02T06:11:00.905Z,1016.13
2017-04-02T06:12:01.614Z,1016.11
2017-04-02T06:13:02.305Z,1016.15
2017-04-02T06:14:03.007Z,1016.17
2017-04-02T06:15:03.693Z,1016.18
2017-04-02T06:16:04.395Z,1016.22
2017-04-02T06:17:05.081Z,1016.24
2017-04-02T06:18:05.772Z,1016.25
2017-04-02T06:19:06.484Z,1016.24
2017-04-02T06:20:07.187Z,1016.25
2017-04-02T06:21:07.869Z,1016.24
2017-04-02T06:22:08.576Z,1016.28
2017-04-02T06:23:09.253Z,1016.26
2017-04-02T06:24:09.968Z,1016.34
2017-04-02T06:25:10.691Z,1016.32
2017-04-02T06:26:11.361Z,1016.35
2017-04-02T06:27:12.040Z,1016.38
2017-04-02T06:28:12.728Z,1016.39
2017-04-02T06:29:13.422Z,1016.39
2017-04-02T06:30:14.124Z,1016.38
2017-04-02T06:31:14.821Z,1016.42
2017-04-02T06:32:15.586Z,1016.44
2017-04-02T06:33:16.265Z,1016.45
2017-04-02T06:34:16.945Z,1016.5
2017-04-02T06:35:17.640Z,1016.51
2017-04-02T06:36:18.312Z,1016.57
2017-04-02T06:37:19.009Z,1016.59
2017-04-02T06:38:19.657Z,1016.62
2017-04-02T06:39:20.356Z,1016.64
2017-04-02T06:40:21.051Z,1016.64
2017-04-02T06:41:21.778Z,1016.68
2017-04-02T06:42:22.477Z,1016.63
2017-04-02T06:43:23.182Z,1016.7
2017-04-02T06:44:23.881Z,1016.72
2017-04-02T06:45:24.575Z,1016.73
2017-04-02T06:46:25.267Z,1016.67
2017-04-02T06:47:25.960Z,1016.72
2017-04-02T06:48:26.648Z,1016.67
2017-04-02T06:49:27.341Z,1016.72
2017-04-02T06:50:28.026Z,1016.76
2017-04-02T06:51:28.747Z,1016.77
2017-04-02T06:52:29.454Z,1016.75
2017-04-02T06:53:30.164Z,1016.78
2017-04-02T06:54:30.870Z,1016.79
2017-04-02T06:55:31.574Z,1016.8
2017-04-02T06:56:32.290Z,1016.78
2017-04-02T06:57:32.961Z,1016.86
2017-04-02T06:58:33.668Z,1017
2017-04-02T06:59:34.358Z,1016.93
2017-04-02T07:00:35.052Z,1016.96
2017-04-02T07:01:35.748Z,1017
2017-04-02T07:02:36.438Z,1017.01
2017-04-02T07:03:37.147Z,1016.98
2017-04-02T07:04:37.859Z,1016.97
2017-04-02T07:05:38.557Z,1016.96
2017-04-02T07:06:39.268Z,1016.94
2017-04-02T07:07:39.977Z,1016.93
2017-04-02T07:08:40.683Z,1017.02
2017-04-02T07:09:41.387Z,1016.99
2017-04-02T07:10:42.074Z,1017.02
2017-04-02T07:11:42.772Z,1016.99
2017-04-02T07:12:43.473Z,1017.01
2017-04-02T07:13:44.160Z,1017.08
2017-04-02T07:14:44.860Z,1017.09
2017-04-02T07:15:45.555Z,1017.12
2017-04-02T07:16:46.249Z,1017.15
2017-04-02T07:17:46.938Z,1017.13
2017-04-02T07:18:47.631Z,1017.13
2017-04-02T07:19:48.339Z,1017.11
2017-04-02T07:20:49.050Z,1017.1
2017-04-02T07:21:49.767Z,1017.12
2017-04-02T07:22:50.473Z,1017.1
2017-04-02T07:23:51.174Z,1017.15
2017-04-02T07:24:51.865Z,1017.21
2017-04-02T07:25:52.577Z,1017.22
2017-04-02T07:26:53.280Z,1017.24
2017-04-02T07:27:53.992Z,1017.25
2017-04-02T07:28:54.716Z,1017.28
2017-04-02T07:29:55.416Z,1017.28
2017-04-02T07:30:56.136Z,1017.26
2017-04-02T07:31:56.836Z,1017.26
2017-04-02T07:32:57.558Z,1017.26
2017-04-02T07:33:58.253Z,1017.29
2017-04-02T07:34:58.946Z,1017.3
2017-04-02T07:35:59.663Z,1017.34
2017-04-02T07:37:00.379Z,1017.34
2017-04-02T07:38:01.100Z,1017.35
2017-04-02T07:39:01.839Z,1017.35
2017-04-02T07:40:02.553Z,1017.33
2017-04-02T07:41:03.265Z,1017.32
2017-04-02T07:42:03.999Z,1017.36
2017-04-02T07:43:04.764Z,1017.37
2017-04-02T07:44:05.463Z,1017.34
2017-04-02T07:45:06.177Z,1017.33
2017-04-02T07:46:07.032Z,1017.35
2017-04-02T07:47:07.754Z,1017.34
2017-04-02T07:48:08.446Z,1017.36
2017-04-02T07:49:09.175Z,1017.39
2017-04-02T07:50:09.896Z,1017.41
2017-04-02T07:51:10.592Z,1017.45
2017-04-02T07:52:11.308Z,1017.47
2017-04-02T07:53:12.032Z,1017.49
2017-04-02T07:54:12.742Z,1017.48
2017-04-02T07:55:13.454Z,1017.48
2017-04-02T07:56:14.178Z,1017.5
2017-04-02T07:57:14.892Z,1017.52
2017-04-02T07:58:15.617Z,1017.55
2017-04-02T07:59:16.310Z,1017.53
2017-04-02T08:00:17.013Z,1017.55
2017-04-02T08:01:17.726Z,1017.55
2017-04-02T08:02:18.442Z,1017.58
2017-04-02T08:03:19.149Z,1017.59
2017-04-02T08:04:19.854Z,1017.6
2017-04-02T08:05:20.578Z,1017.61
2017-04-02T08:06:21.300Z,1017.61
2017-04-02T08:07:22.006Z,1017.6
2017-04-02T08:08:22.768Z,1017.64
2017-04-02T08:09:23.465Z,1017.63
2017-04-02T08:10:24.182Z,1017.62
2017-04-02T08:11:24.903Z,1017.61
2017-04-02T08:12:25.629Z,1017.64
2017-04-02T08:13:26.352Z,1017.67
2017-04-02T08:14:27.055Z,1017.65
2017-04-02T08:15:27.766Z,1017.65
2017-04-02T08:16:28.471Z,1017.69
2017-04-02T08:17:29.211Z,1017.69
2017-04-02T08:18:29.882Z,1017.65
2017-04-02T08:19:30.590Z,1017.68
2017-04-02T08:20:31.323Z,1017.71
2017-04-02T08:21:32.041Z,1017.72
2017-04-02T08:22:32.755Z,1017.72
2017-04-02T08:23:33.515Z,1017.72
2017-04-02T08:24:34.230Z,1017.75
2017-04-02T08:25:34.944Z,1017.73
2017-04-02T08:26:35.664Z,1017.74
2017-04-02T08:27:36.370Z,1017.74
2017-04-02T08:28:37.083Z,1017.76
2017-04-02T08:29:37.780Z,1017.79
2017-04-02T08:30:38.511Z,1017.76
2017-04-02T08:31:39.218Z,1017.8
2017-04-02T08:32:39.917Z,1017.76
2017-04-02T08:33:40.627Z,1017.78
2017-04-02T08:34:41.327Z,1017.83
2017-04-02T08:35:42.028Z,1017.84
2017-04-02T08:36:42.718Z,1017.88
2017-04-02T08:37:43.448Z,1017.85
2017-04-02T08:38:44.175Z,1017.92
2017-04-02T08:39:44.891Z,1017.95
2017-04-02T08:40:45.614Z,1017.95
2017-04-02T08:41:46.332Z,1017.97
2017-04-02T08:42:47.039Z,1017.95
2017-04-02T08:43:47.741Z,1017.95
2017-04-02T08:44:48.450Z,1017.98
2017-04-02T08:45:49.166Z,1017.94
2017-04-02T08:46:49.871Z,1017.95
2017-04-02T08:47:50.609Z,1018
2017-04-02T08:48:51.365Z,1017.98
2017-04-02T08:49:52.102Z,1017.96
2017-04-02T08:50:52.803Z,1017.96
2017-04-02T08:51:53.533Z,1018.01
2017-04-02T08:52:54.231Z,1017.98
2017-04-02T08:53:54.978Z,1018.06
2017-04-02T08:54:55.687Z,1018.05
2017-04-02T08:55:56.433Z,1018.07
2017-04-02T08:56:57.160Z,1018.06
2017-04-02T08:57:57.885Z,1018
2017-04-02T08:58:58.627Z,1018.03
2017-04-02T08:59:59.321Z,1018.04
2017-04-02T09:01:00.056Z,1018.05
2017-04-02T09:02:00.828Z,1018.06
2017-04-02T09:03:01.553Z,1018.09
2017-04-02T09:04:02.269Z,1018.12
2017-04-02T09:05:02.982Z,1018.16
2017-04-02T09:06:03.722Z,1018.12
2017-04-02T09:07:04.444Z,1018.14
2017-04-02T09:08:05.156Z,1018.13
2017-04-02T09:09:05.864Z,1018.1
2017-04-02T09:10:06.610Z,1018.04
2017-04-02T09:11:07.320Z,1018.16
2017-04-02T09:12:08.030Z,1018.15
2017-04-02T09:13:08.743Z,1018.14
2017-04-02T09:14:09.456Z,1018.21
2017-04-02T09:15:10.159Z,1018.08
2017-04-02T09:16:10.885Z,1018.2
2017-04-02T09:17:11.565Z,1018.2
2017-04-02T09:18:12.298Z,1018.22
2017-04-02T09:19:12.981Z,1018.14
2017-04-02T09:20:13.685Z,1018.21
2017-04-02T09:21:14.410Z,1018.09
2017-04-02T09:22:15.137Z,1018.22
2017-04-02T09:23:15.861Z,1018.23
2017-04-02T09:24:16.583Z,1018.22
2017-04-02T09:25:17.289Z,1018.24
2017-04-02T09:26:18.020Z,1018.24
2017-04-02T09:27:18.793Z,1018.16
2017-04-02T09:28:19.528Z,1018.2
2017-04-02T09:29:20.234Z,1018.2
2017-04-02T09:30:20.944Z,1018.3
2017-04-02T09:31:21.648Z,1018.34
2017-04-02T09:32:22.364Z,1018.33
2017-04-02T09:33:23.066Z,1018.33
2017-04-02T09:34:23.771Z,1018.31
2017-04-02T09:35:24.485Z,1018.25
2017-04-02T09:36:25.179Z,1018.25
2017-04-02T09:37:25.882Z,1018.22
2017-04-02T09:38:26.626Z,1018.23
2017-04-02T09:39:27.340Z,1018.27
2017-04-02T09:40:28.020Z,1018.29
2017-04-02T09:41:28.735Z,1018.29
2017-04-02T09:42:29.443Z,1018.29
2017-04-02T09:43:30.149Z,1018.28
2017-04-02T09:44:30.861Z,1018.33
2017-04-02T09:45:31.618Z,1018.3
2017-04-02T09:46:32.332Z,1018.29
2017-04-02T09:47:33.056Z,1018.34
2017-04-02T09:48:33.789Z,1018.36
2017-04-02T09:49:34.514Z,1018.36
2017-04-02T09:50:35.206Z,1018.38
2017-04-02T09:51:35.893Z,1018.39
2017-04-02T09:52:36.591Z,1018.43
2017-04-02T09:53:37.306Z,1018.46
2017-04-02T09:54:38.147Z,1018.41
2017-04-02T09:55:38.951Z,1018.38
2017-04-02T09:56:39.801Z,1018.4
2017-04-02T09:57:40.501Z,1018.38
2017-04-02T09:58:41.185Z,1018.45
2017-04-02T09:59:41.900Z,1018.34
2017-04-02T10:00:42.591Z,1018.35
2017-04-02T10:01:43.295Z,1018.38
2017-04-02T10:02:44.013Z,1018.34
2017-04-02T10:03:44.750Z,1018.39
2017-04-02T10:04:45.469Z,1018.38
2017-04-02T10:05:46.196Z,1018.4
2017-04-02T10:06:46.933Z,1018.46
2017-04-02T10:07:47.649Z,1018.45
2017-04-02T10:08:48.369Z,1018.41
2017-04-02T10:09:49.069Z,1018.4
2017-04-02T10:10:49.796Z,1018.39
2017-04-02T10:11:50.492Z,1018.41
2017-04-02T10:12:51.211Z,1018.45
2017-04-02T10:13:51.978Z,1018.49
2017-04-02T10:14:52.640Z,1018.47
2017-04-02T10:15:53.361Z,1018.44
2017-04-02T10:16:54.063Z,1018.44
2017-04-02T10:17:54.766Z,1018.48
2017-04-02T10:18:55.462Z,1018.45
2017-04-02T10:19:56.162Z,1018.41
2017-04-02T10:20:56.864Z,1018.43
2017-04-02T10:21:57.613Z,1018.44
2017-04-02T10:22:58.348Z,1018.43
2017-04-02T10:23:59.218Z,1018.39
2017-04-02T10:25:00.009Z,1018.37
2017-04-02T10:26:00.913Z,1018.37
2017-04-02T10:27:01.636Z,1018.36
2017-04-02T10:28:02.356Z,1018.36
2017-04-02T10:29:03.089Z,1018.36
2017-04-02T10:30:03.803Z,1018.4
2017-04-02T10:31:04.585Z,1018.45
2017-04-02T10:32:05.238Z,1018.42
2017-04-02T10:33:05.953Z,1018.46
2017-04-02T10:34:06.682Z,1018.47
2017-04-02T10:35:07.394Z,1018.43
2017-04-02T10:36:08.101Z,1018.42
2017-04-02T10:37:09.168Z,1018.37
2017-04-02T10:38:10.346Z,1018.4
2017-04-02T10:39:11.042Z,1018.37
2017-04-02T10:40:11.818Z,1018.47
2017-04-02T10:41:12.522Z,1018.49
2017-04-02T10:42:13.231Z,1018.46
2017-04-02T10:43:13.946Z,1018.41
2017-04-02T10:44:14.633Z,1018.43
2017-04-02T10:45:15.353Z,1018.42
2017-04-02T10:46:16.072Z,1018.41
2017-04-02T10:47:16.775Z,1018.38
2017-04-02T10:48:17.493Z,1018.41
2017-04-02T10:49:18.193Z,1018.42
2017-04-02T10:50:18.898Z,1018.42
2017-04-02T10:51:19.615Z,1018.41
2017-04-02T10:52:20.328Z,1018.37
2017-04-02T10:53:21.071Z,1018.42
2017-04-02T10:54:21.786Z,1018.41
2017-04-02T10:55:22.483Z,1018.36
2017-04-02T10:56:23.214Z,1018.35
2017-04-02T10:57:23.948Z,1018.42
2017-04-02T10:58:24.646Z,1018.47
2017-04-02T10:59:25.367Z,1018.5
2017-04-02T11:00:26.087Z,1018.46
2017-04-02T11:01:26.795Z,1018.48
2017-04-02T11:02:27.506Z,1018.47
2017-04-02T11:03:28.217Z,1018.52
2017-04-02T11:04:28.924Z,1018.49
2017-04-02T11:05:29.642Z,1018.49
2017-04-02T11:06:30.395Z,1018.49
2017-04-02T11:07:31.102Z,1018.5
2017-04-02T11:08:31.828Z,1018.52
2017-04-02T11:09:32.547Z,1018.49
2017-04-02T11:10:33.266Z,1018.48
2017-04-02T11:11:33.961Z,1018.48
2017-04-02T11:12:34.676Z,1018.48
2017-04-02T11:13:35.383Z,1018.47
2017-04-02T11:14:36.090Z,1018.47
2017-04-02T11:15:36.805Z,1018.56
2017-04-02T11:16:37.518Z,1018.54
2017-04-02T11:17:38.229Z,1018.52
2017-04-02T11:18:39.020Z,1018.52
2017-04-02T11:19:39.718Z,1018.59
2017-04-02T11:20:40.439Z,1018.53
2017-04-02T11:21:41.159Z,1018.55
2017-04-02T11:22:41.883Z,1018.6
2017-04-02T11:23:42.612Z,1018.61
2017-04-02T11:24:43.329Z,1018.67
2017-04-02T11:25:44.064Z,1018.6
2017-04-02T11:26:44.782Z,1018.58
2017-04-02T11:27:45.513Z,1018.6
2017-04-02T11:28:46.251Z,1018.63
